createdAt,value
2019-03-19T00:16:31.987Z,69.6
2019-03-19T00:33:06.193Z,69.6
2019-03-19T00:49:40.426Z,70.0
2019-03-19T01:06:14.515Z,70.0
2019-03-19T01:22:48.538Z,70.8
2019-03-19T01:39:22.685Z,70.4
2019-03-19T01:56:04.801Z,70.8
2019-03-19T02:12:30.543Z,71.2
2019-03-19T02:29:04.521Z,71.2
2019-03-19T02:45:38.468Z,71.6
2019-03-19T03:02:12.397Z,72.0
2019-03-19T03:18:46.376Z,71.6
2019-03-19T03:35:20.121Z,72.0
2019-03-19T03:51:53.843Z,72.4
2019-03-19T04:08:27.567Z,72.0
2019-03-19T04:25:01.103Z,72.4
2019-03-19T04:41:34.589Z,72.8
2019-03-19T04:58:08.073Z,72.4
2019-03-19T05:14:41.451Z,72.4
2019-03-19T05:31:14.855Z,72.8
2019-03-19T05:47:48.278Z,72.8
2019-03-19T06:04:21.602Z,73.2
2019-03-19T06:20:55.102Z,73.6
2019-03-19T06:37:28.642Z,74.0
2019-03-19T06:54:02.560Z,73.6
2019-03-19T07:10:36.773Z,73.2
2019-03-19T07:20:33.790Z,73.2
2019-03-19T07:37:09.028Z,72.8
2019-03-19T07:50:25.618Z,72.4
2019-03-19T08:03:42.500Z,72.0
2019-03-19T08:20:18.819Z,71.6
2019-03-19T08:33:36.164Z,71.2
2019-03-19T08:46:53.832Z,71.6
2019-03-19T08:56:52.215Z,70.4
2019-03-19T09:03:32.254Z,70.0
2019-03-19T09:20:09.902Z,68.4
2019-03-19T09:36:57.028Z,67.6
2019-03-19T09:43:27.326Z,66.8
2019-03-19T10:00:06.052Z,65.2
2019-03-19T10:06:47.243Z,64.0
2019-03-19T10:16:44.955Z,62.8
2019-03-19T10:26:44.576Z,61.6
2019-03-19T10:33:24.489Z,60.8
2019-03-19T10:43:23.976Z,60.0
2019-03-19T11:00:02.772Z,59.6
2019-03-19T11:10:02.169Z,58.8
2019-03-19T11:26:41.677Z,57.6
2019-03-19T11:43:21.119Z,56.8
2019-03-19T11:56:40.777Z,56.0
2019-03-19T12:10:00.905Z,54.0
2019-03-19T12:26:41.195Z,53.6
2019-03-19T12:43:21.489Z,53.2
2019-03-19T12:56:41.954Z,52.0
2019-03-19T13:13:22.245Z,52.0
2019-03-19T13:30:02.678Z,50.8
2019-03-19T13:46:43.040Z,50.8
2019-03-19T14:03:22.458Z,51.2
2019-03-19T14:20:02.757Z,50.8
2019-03-19T14:36:42.460Z,51.2
2019-03-19T14:53:22.430Z,51.2
2019-03-19T15:10:02.597Z,51.2
2019-03-19T15:26:42.987Z,51.2
2019-03-19T15:43:23.522Z,51.6
2019-03-19T15:53:23.845Z,51.2
2019-03-19T16:10:03.365Z,51.6
2019-03-19T16:26:42.675Z,51.2
2019-03-19T16:43:22.412Z,51.6
2019-03-19T17:00:01.796Z,52.0
2019-03-19T17:16:40.710Z,52.8
2019-03-19T17:33:19.335Z,53.2
2019-03-19T17:49:57.685Z,53.6
2019-03-19T18:06:35.975Z,54.4
2019-03-19T18:23:13.908Z,55.6
2019-03-19T18:39:52.575Z,55.6
2019-03-19T18:56:29.302Z,56.8
2019-03-19T19:13:06.606Z,57.2
2019-03-19T19:29:43.788Z,58.0
2019-03-19T19:46:20.712Z,58.4
2019-03-19T20:02:57.764Z,58.8
2019-03-19T20:19:34.690Z,59.2
2019-03-19T20:36:12.181Z,59.6
2019-03-19T20:52:48.536Z,60.0
2019-03-19T21:09:25.000Z,60.4
2019-03-19T21:26:01.776Z,60.4
2019-03-19T21:42:38.515Z,60.4
2019-03-19T21:59:15.336Z,60.0
2019-03-19T22:15:51.556Z,60.8
2019-03-19T22:32:27.862Z,61.2
2019-03-19T22:49:03.494Z,61.2
2019-03-19T23:05:39.435Z,61.2
2019-03-19T23:22:15.155Z,61.6
2019-03-19T23:38:50.562Z,62.4
2019-03-19T23:55:25.873Z,62.8
